Time;durP1;ratioP1;P1;durP2;ratioP2;P2;SDS_P1;SDS_P2;PMS_P1;PMS_P2;Temp;Humidity;BMP_temperature;BMP_pressure;BME280_temperature;BME280_humidity;BME280_pressure;Samples;Min_cycle;Max_cycle;Signal;HPM_P1;HPM_P2
2021/11/12 00:13:42;;;;;;;31.77;20.58;;;;;;;6.39;74.40;100498.88;5016063;28;19913;-63
2021/11/12 00:16:12;;;;;;;31.10;19.83;;;;;;;6.36;74.39;100497.06;4999246;28;20096;-63
2021/11/12 00:18:42;;;;;;;32.70;19.98;;;;;;;6.37;74.11;100488.53;5000204;28;20034;-64
2021/11/12 00:21:08;;;;;;;29.02;20.40;;;;;;;6.37;73.91;100485.09;4999097;28;20409;-63
2021/11/12 00:23:38;;;;;;;34.47;21.23;;;;;;;6.38;74.34;100487.72;4999231;28;20482;-63
2021/11/12 00:26:07;;;;;;;28.30;20.08;;;;;;;6.38;74.45;100480.00;4999650;28;20048;-63
2021/11/12 00:28:39;;;;;;;29.90;18.13;;;;;;;6.38;73.93;100482.56;5000071;28;20065;-64
2021/11/12 00:31:20;;;;;;;29.48;19.15;;;;;;;6.39;74.15;100484.34;4999065;28;20045;-63
2021/11/12 00:44:42;;;;;;;32.67;20.73;;;;;;;6.32;74.59;100481.44;5014680;28;20030;-64
2021/11/12 00:47:56;;;;;;;27.73;19.30;;;;;;;6.32;73.89;100478.88;4999647;28;20045;-63
2021/11/12 00:55:07;;;;;;;32.78;19.85;;;;;;;6.25;74.01;100481.19;5014769;28;20045;-63
2021/11/12 00:57:39;;;;;;;32.33;21.15;;;;;;;6.23;73.86;100477.66;4998961;28;20046;-64
2021/11/12 01:00:06;;;;;;;30.60;20.02;;;;;;;6.21;73.90;100478.44;4997715;28;20045;-63
2021/11/12 01:02:38;;;;;;;30.67;19.38;;;;;;;6.23;74.22;100487.09;4998653;28;20058;-63
2021/11/12 01:05:09;;;;;;;30.58;20.85;;;;;;;6.21;74.32;100492.19;4998648;28;20041;-63
2021/11/12 01:07:39;;;;;;;37.28;19.83;;;;;;;6.21;74.05;100491.31;4998572;28;20054;-64
2021/11/12 01:10:09;;;;;;;29.58;19.52;;;;;;;6.20;74.09;100474.09;5014725;28;20116;-64
2021/11/12 01:12:46;;;;;;;29.20;20.20;;;;;;;6.21;73.97;100468.13;5014753;28;20037;-64
2021/11/12 01:15:18;;;;;;;32.33;19.10;;;;;;;6.19;74.28;100462.94;4997898;28;20069;-64
2021/11/12 01:17:44;;;;;;;35.53;19.48;;;;;;;6.19;73.80;100468.09;5014900;28;20385;-63
2021/11/12 01:20:16;;;;;;;30.23;19.33;;;;;;;6.19;73.87;100470.66;4998323;28;20048;-64
2021/11/12 01:22:43;;;;;;;30.63;19.27;;;;;;;6.20;73.97;100461.22;4998340;28;20042;-63
2021/11/12 01:25:15;;;;;;;30.33;20.35;;;;;;;6.21;74.40;100465.56;4998135;28;20045;-63
2021/11/12 01:27:47;;;;;;;30.23;20.50;;;;;;;6.21;73.74;100465.56;4997986;28;20049;-63
2021/11/12 01:30:15;;;;;;;31.92;20.00;;;;;;;6.21;74.07;100465.56;4998081;28;20423;-64
2021/11/12 01:32:45;;;;;;;31.75;20.02;;;;;;;6.20;73.99;100466.38;5014425;28;20046;-63
2021/11/12 01:35:16;;;;;;;26.02;18.20;;;;;;;6.19;74.45;100454.31;4998026;28;20069;-63
2021/11/12 01:37:44;;;;;;;31.20;18.30;;;;;;;6.20;73.65;100472.44;4998535;28;20100;-64
2021/11/12 01:40:22;;;;;;;26.98;19.90;;;;;;;6.21;73.75;100457.84;4998210;28;20034;-64
2021/11/12 01:43:23;;;;;;;30.30;19.73;;;;;;;6.19;73.75;100457.78;4997894;28;20092;-64
2021/11/12 01:48:53;;;;;;;28.15;18.38;;;;;;;6.19;74.45;100451.75;5014331;28;20046;-64
2021/11/12 01:51:39;;;;;;;26.35;18.25;;;;;;;6.18;73.98;100448.31;4997575;28;20572;-64
2021/11/12 02:01:52;;;;;;;28.35;17.85;;;;;;;6.08;73.73;100439.34;5013337;28;20053;-63
2021/11/12 02:04:27;;;;;;;30.42;19.17;;;;;;;6.08;74.22;100443.59;4997071;28;20125;-63
2021/11/12 02:06:54;;;;;;;31.02;18.50;;;;;;;6.05;73.92;100434.06;4997599;28;20074;-63
2021/11/12 02:09:21;;;;;;;28.77;17.77;;;;;;;6.06;73.96;100427.25;4997059;28;20128;-64
2021/11/12 02:11:59;;;;;;;27.52;18.65;;;;;;;6.03;73.60;100427.97;4997246;28;20100;-63
2021/11/12 02:14:25;;;;;;;27.65;17.92;;;;;;;6.03;73.71;100427.97;4996644;28;20444;-64
2021/11/12 02:16:57;;;;;;;27.33;20.15;;;;;;;6.00;73.72;100416.69;4997722;28;20103;-63
2021/11/12 02:19:23;;;;;;;24.42;18.42;;;;;;;6.01;73.61;100414.16;4996758;28;20026;-62
2021/11/12 02:22:04;;;;;;;27.80;18.45;;;;;;;5.98;73.49;100408.88;5013301;28;20030;-62
2021/11/12 02:24:32;;;;;;;29.42;19.42;;;;;;;5.98;74.10;100408.88;4996993;28;20052;-63
2021/11/12 02:27:03;;;;;;;30.60;19.73;;;;;;;5.95;73.66;100404.47;4997689;28;20037;-63
2021/11/12 02:29:31;;;;;;;28.48;18.73;;;;;;;5.95;73.49;100406.19;4997008;28;20034;-63
2021/11/12 02:31:57;;;;;;;30.98;20.20;;;;;;;5.94;74.24;100407.00;4997194;28;20053;-64
2021/11/12 02:34:29;;;;;;;29.42;20.35;;;;;;;5.93;73.45;100402.66;5014558;28;20038;-64
2021/11/12 02:36:59;;;;;;;31.42;19.52;;;;;;;5.91;73.39;100391.44;4996998;28;20037;-63
2021/11/12 02:39:28;;;;;;;34.45;21.20;;;;;;;5.88;73.82;100387.03;4996716;28;20485;-64
2021/11/12 02:41:56;;;;;;;31.35;21.65;;;;;;;5.87;73.48;100382.72;4996790;28;20400;-63
2021/11/12 02:44:23;;;;;;;30.35;21.23;;;;;;;5.87;73.90;100374.09;4996757;28;20084;-63
2021/11/12 02:46:55;;;;;;;33.97;20.40;;;;;;;5.88;73.97;100375.84;4996728;28;20038;-63
2021/11/12 02:49:23;;;;;;;36.95;20.40;;;;;;;5.87;73.52;100374.09;4996610;28;20046;-63
2021/11/12 02:51:49;;;;;;;31.15;20.52;;;;;;;5.87;73.31;100371.53;4996646;28;20551;-63
2021/11/12 02:54:18;;;;;;;36.97;20.20;;;;;;;5.85;74.19;100360.28;5012753;28;20099;-64
2021/11/12 02:56:44;;;;;;;32.08;20.13;;;;;;;5.85;74.18;100368.00;4996560;28;20152;-63
2021/11/12 02:59:12;;;;;;;33.95;21.52;;;;;;;5.85;73.50;100365.44;4996597;28;20125;-63
2021/11/12 03:01:45;;;;;;;33.85;21.58;;;;;;;5.85;73.26;100362.88;4996191;28;20068;-63
2021/11/12 03:04:11;;;;;;;33.50;21.17;;;;;;;5.85;74.11;100365.44;4996312;28;20033;-63
2021/11/12 03:06:38;;;;;;;31.40;21.15;;;;;;;5.83;73.93;100359.38;4996148;28;20030;-63
2021/11/12 03:09:11;;;;;;;29.38;20.35;;;;;;;5.84;73.41;100363.72;4996481;28;20168;-63
2021/11/12 03:11:38;;;;;;;34.20;20.10;;;;;;;5.83;73.47;100361.97;4997014;28;20037;-63
2021/11/12 03:14:07;;;;;;;32.05;20.83;;;;;;;5.82;73.52;100361.06;5012621;28;20527;-63
2021/11/12 03:16:34;;;;;;;34.13;21.50;;;;;;;5.84;74.07;100363.72;4996126;28;20490;-63
2021/11/12 03:19:01;;;;;;;31.40;21.50;;;;;;;5.82;73.83;100355.06;4996247;28;20066;-63
2021/11/12 03:21:28;;;;;;;33.53;20.83;;;;;;;5.83;73.98;100349.97;4995297;28;20053;-63
2021/11/12 03:24:01;;;;;;;30.73;20.15;;;;;;;5.86;73.34;100356.91;4996715;28;20038;-63
2021/11/12 04:18:29;;;;;;;30.58;20.02;;;;;;;5.75;73.29;100346.22;5012287;28;20034;-64
2021/11/12 04:21:16;;;;;;;29.48;19.88;;;;;;;5.76;73.81;100342.81;4996088;28;20041;-63
2021/11/12 05:56:47;;;;;;;26.85;17.17;;;;;;;5.60;72.93;100192.16;5014404;28;20080;-63
2021/11/12 05:59:15;;;;;;;27.92;18.98;;;;;;;5.60;73.47;100199.88;4997696;28;20034;-63
2021/11/12 06:01:42;;;;;;;26.83;19.48;;;;;;;5.56;73.17;100196.31;4997271;28;20073;-63
2021/11/12 06:04:10;;;;;;;26.95;21.15;;;;;;;5.53;72.81;100185.06;4997551;28;20042;-64
2021/11/12 06:06:36;;;;;;;30.02;18.65;;;;;;;5.53;72.67;100174.78;4997374;28;20077;-63
2021/11/12 06:09:08;;;;;;;30.98;19.27;;;;;;;5.52;72.76;100166.16;4997847;28;20040;-63
2021/11/12 06:11:38;;;;;;;26.48;18.95;;;;;;;5.54;72.78;100168.78;4997799;28;20054;-63
2021/11/12 06:14:04;;;;;;;29.20;19.58;;;;;;;5.55;72.82;100168.84;4997788;28;20358;-64
2021/11/12 06:16:35;;;;;;;26.33;19.00;;;;;;;5.56;73.43;100165.47;4997510;28;20056;-64
2021/11/12 06:19:02;;;;;;;30.77;21.10;;;;;;;5.53;73.19;100159.34;4997158;28;20038;-63
2021/11/12 06:21:29;;;;;;;29.27;20.75;;;;;;;5.53;73.32;100169.63;4997505;28;20049;-63
2021/11/12 06:27:41;;;;;;;28.95;20.83;;;;;;;5.54;73.08;100197.97;5014544;28;20136;-63
2021/11/12 06:30:10;;;;;;;27.63;19.08;;;;;;;5.54;73.28;100199.63;4997332;28;20527;-63
2021/11/12 06:32:36;;;;;;;31.10;20.25;;;;;;;5.55;72.91;100196.25;4996859;28;20089;-64
2021/11/12 06:35:06;;;;;;;31.42;20.13;;;;;;;5.53;72.81;100187.63;4997335;28;20129;-63
2021/11/12 06:37:35;;;;;;;31.95;20.63;;;;;;;5.51;72.96;100181.53;5013163;28;20045;-63
2021/11/12 06:40:07;;;;;;;30.48;21.15;;;;;;;5.50;72.82;100178.09;4996630;28;20120;-64
2021/11/12 06:42:38;;;;;;;30.63;19.70;;;;;;;5.51;73.16;100164.41;4997203;28;20033;-63
2021/11/12 06:50:37;;;;;;;29.48;20.02;;;;;;;5.53;73.09;100146.50;5012816;28;20454;-63
2021/11/12 06:53:03;;;;;;;29.80;19.95;;;;;;;5.53;72.83;100149.94;4996581;28;20544;-63
2021/11/12 06:55:33;;;;;;;29.15;20.55;;;;;;;5.55;73.23;100144.81;4996410;28;20030;-63
2021/11/12 06:58:02;;;;;;;31.25;20.17;;;;;;;5.56;73.21;100144.00;4995641;28;20133;-64
2021/11/12 07:00:28;;;;;;;30.10;19.13;;;;;;;5.57;73.27;100153.47;4995936;28;20096;-64
2021/11/12 07:02:54;;;;;;;29.17;19.33;;;;;;;5.58;72.79;100166.41;4996411;28;20053;-64
2021/11/12 07:05:22;;;;;;;26.70;20.63;;;;;;;5.59;73.30;100162.13;4996471;28;20124;-63
2021/11/12 07:07:51;;;;;;;27.80;19.95;;;;;;;5.59;72.75;100157.00;4996076;28;20037;-63
2021/11/12 07:10:20;;;;;;;26.50;19.13;;;;;;;5.59;72.62;100168.16;4996486;28;20164;-63
2021/11/12 07:12:51;;;;;;;26.73;18.90;;;;;;;5.60;72.82;100169.03;5013258;28;20493;-63
2021/11/12 07:15:18;;;;;;;30.58;21.10;;;;;;;5.60;73.23;100176.75;4996324;28;20116;-63
2021/11/12 07:17:46;;;;;;;31.30;20.15;;;;;;;5.60;72.73;100181.88;4996316;28;20041;-63
2021/11/12 07:20:16;;;;;;;29.05;19.55;;;;;;;5.61;73.16;100196.50;5012375;28;20034;-63
2021/11/12 07:22:45;;;;;;;23.85;19.20;;;;;;;5.60;73.12;100200.78;4996216;28;20486;-64
2021/11/12 07:25:11;;;;;;;29.08;19.75;;;;;;;5.61;73.03;100204.22;4996146;28;20044;-63
2021/11/12 07:27:37;;;;;;;27.30;18.25;;;;;;;5.59;72.61;100199.03;4996359;28;20038;-63
2021/11/12 07:30:07;;;;;;;28.80;19.80;;;;;;;5.57;73.23;100199.75;4996371;28;20038;-63
2021/11/12 07:32:38;;;;;;;26.98;18.75;;;;;;;5.56;72.74;100192.88;4996159;28;20061;-63
2021/11/12 07:35:08;;;;;;;29.85;21.15;;;;;;;5.54;73.14;100186.78;4995905;28;20486;-63
2021/11/12 07:37:37;;;;;;;29.30;20.65;;;;;;;5.52;72.67;100191.88;4995925;28;20037;-64
2021/11/12 07:40:09;;;;;;;27.52;19.63;;;;;;;5.52;73.04;100196.16;4996368;28;20049;-62
2021/11/12 07:42:55;;;;;;;29.92;20.40;;;;;;;5.49;72.58;100192.66;4995831;28;20038;-63
2021/11/12 07:48:03;;;;;;;31.15;20.95;;;;;;;5.47;72.62;100154.81;5012664;28;20038;-64
2021/11/12 07:50:30;;;;;;;34.75;22.20;;;;;;;5.45;72.52;100147.06;5012443;28;20041;-63
2021/11/12 07:53:04;;;;;;;31.02;21.30;;;;;;;5.46;73.10;100156.53;4995924;28;20038;-63
2021/11/12 07:55:33;;;;;;;29.98;22.85;;;;;;;5.45;72.86;100154.78;4996177;28;20030;-64
2021/11/12 07:57:59;;;;;;;31.02;21.58;;;;;;;5.44;72.96;100153.03;4996460;28;20034;-63
2021/11/12 08:00:26;;;;;;;34.97;21.48;;;;;;;5.46;72.90;100165.91;4995779;28;20387;-63
2021/11/12 08:02:56;;;;;;;36.13;21.65;;;;;;;5.46;72.55;100165.91;4995751;28;20037;-63
2021/11/12 08:06:01;;;;;;;33.50;20.65;;;;;;;5.45;73.02;100167.63;4996078;28;20038;-64
2021/11/12 08:08:37;;;;;;;35.95;23.25;;;;;;;5.46;73.08;100176.19;4997440;28;20040;-63
2021/11/12 08:11:14;;;;;;;33.58;21.35;;;;;;;5.44;73.28;100172.72;5000183;28;20042;-64
2021/11/12 08:17:00;;;;;;;35.85;23.35;;;;;;;5.41;72.75;100167.47;5016112;28;20452;-63
2021/11/12 08:25:11;;;;;;;34.72;21.15;;;;;;;5.42;72.65;100164.06;5015566;28;20132;-63
2021/11/12 08:28:42;;;;;;;36.78;24.25;;;;;;;5.43;72.48;100147.84;4998852;28;20099;-63
2021/11/12 08:42:07;;;;;;;34.60;22.60;;;;;;;5.44;72.73;100139.31;5016206;28;20045;-63
2021/11/12 08:47:30;;;;;;;42.83;23.05;;;;;;;5.46;72.64;100117.97;4996003;28;20493;-63
2021/11/12 08:49:58;;;;;;;34.35;22.17;;;;;;;5.46;72.78;100114.50;4998874;28;20045;-64
2021/11/12 08:53:02;;;;;;;34.28;23.08;;;;;;;5.43;72.81;100106.69;4998897;28;20049;-63
2021/11/12 08:55:35;;;;;;;31.80;21.88;;;;;;;5.41;72.94;100096.34;4999694;28;20087;-63
2021/11/12 08:58:06;;;;;;;33.58;23.35;;;;;;;5.42;73.02;100092.94;4998591;28;20045;-64
2021/11/12 09:00:39;;;;;;;33.65;22.95;;;;;;;5.42;73.15;100087.81;4998653;28;20477;-65
2021/11/12 09:03:12;;;;;;;31.85;21.95;;;;;;;5.43;73.27;100097.28;4999038;28;20061;-64
2021/11/12 09:05:39;;;;;;;33.55;21.23;;;;;;;5.45;73.24;100087.06;4998914;28;20099;-63
2021/11/12 09:08:08;;;;;;;31.95;21.85;;;;;;;5.46;72.90;100089.69;4998623;28;20137;-63
2021/11/12 09:10:40;;;;;;;31.92;20.73;;;;;;;5.48;72.86;100088.06;4998297;28;20038;-63
2021/11/12 09:13:18;;;;;;;32.90;22.02;;;;;;;5.51;72.70;100091.56;4998753;28;20460;-63
2021/11/12 09:15:51;;;;;;;26.92;19.58;;;;;;;5.51;72.91;100083.84;4998631;28;20042;-63
2021/11/12 09:18:29;;;;;;;34.20;21.67;;;;;;;5.54;73.27;100104.50;4998729;28;20081;-63
2021/11/12 09:21:03;;;;;;;32.45;21.67;;;;;;;5.54;73.09;100089.97;4997347;28;20084;-63
2021/11/12 09:23:32;;;;;;;30.98;19.65;;;;;;;5.58;72.91;100088.38;4993481;28;20037;-63
2021/11/12 09:26:07;;;;;;;30.20;20.92;;;;;;;5.59;72.47;100092.72;4998294;28;20042;-63
2021/11/12 09:28:47;;;;;;;;;;;;;;;5.60;72.47;100094.47;4999220;28;20048;-63
2021/11/12 09:31:17;;;;;;;28.90;19.20;;;;;;;5.60;73.18;100097.94;4998354;28;20324;-64
2021/11/12 09:33:46;;;;;;;30.35;20.05;;;;;;;5.61;73.19;100097.06;4998152;28;20050;-63
2021/11/12 09:36:14;;;;;;;26.58;19.25;;;;;;;5.65;73.05;100095.53;4998483;28;20033;-63
2021/11/12 09:38:50;;;;;;;33.42;20.67;;;;;;;5.67;72.77;100082.72;4998576;28;20103;-63
2021/11/12 09:41:18;;;;;;;32.53;21.42;;;;;;;5.68;72.90;100080.22;4998241;28;20137;-63
2021/11/12 09:43:53;;;;;;;29.67;20.45;;;;;;;5.72;72.88;100071.75;5014058;28;20433;-63
2021/11/12 09:46:23;;;;;;;35.25;21.27;;;;;;;5.75;72.65;100069.31;4998393;28;20565;-65
2021/11/12 09:49:03;;;;;;;29.02;21.02;;;;;;;5.77;72.72;100059.06;4998634;28;20133;-62
2021/11/12 09:51:32;;;;;;;32.40;22.35;;;;;;;5.81;72.88;100049.78;5014289;28;20056;-63
2021/11/12 09:54:06;;;;;;;30.85;21.73;;;;;;;5.84;72.91;100044.75;4997726;28;20056;-63
2021/11/12 09:56:41;;;;;;;37.22;22.33;;;;;;;5.88;73.27;100041.44;4997510;28;20076;-63
2021/11/12 09:59:11;;;;;;;36.88;21.33;;;;;;;5.92;73.07;100039.03;5013981;28;20046;-63
2021/11/12 10:01:42;;;;;;;35.42;21.77;;;;;;;5.97;72.99;100040.88;4998045;28;20046;-63
2021/11/12 10:04:14;;;;;;;42.80;23.73;;;;;;;6.03;72.94;100036.00;4997330;28;20073;-63
2021/11/12 10:06:45;;;;;;;34.80;21.98;;;;;;;6.08;72.66;100044.72;4997786;28;20046;-63
2021/11/12 10:09:23;;;;;;;34.05;21.42;;;;;;;6.12;73.06;100049.16;4997222;28;20401;-63
2021/11/12 10:11:59;;;;;;;34.50;21.73;;;;;;;6.14;72.89;100039.81;5014249;28;20037;-63
2021/11/12 10:14:49;;;;;;;33.38;19.88;;;;;;;6.17;72.92;100031.31;4997672;28;20564;-63
2021/11/12 10:17:15;;;;;;;31.55;20.10;;;;;;;6.19;72.69;100027.09;4997246;28;20045;-64
2021/11/12 10:19:47;;;;;;;30.55;19.95;;;;;;;6.21;72.91;100030.59;4998254;28;20041;-63
2021/11/12 10:22:24;;;;;;;36.70;20.98;;;;;;;6.23;72.71;100022.09;5013560;28;20048;-63
2021/11/12 10:24:56;;;;;;;32.22;20.35;;;;;;;6.26;72.64;100018.75;4997502;28;20552;-63
2021/11/12 10:27:29;;;;;;;32.47;19.98;;;;;;;6.29;72.67;100011.16;4997077;28;20077;-63
2021/11/12 10:30:11;;;;;;;30.10;19.73;;;;;;;6.32;72.58;100013.78;4997331;28;20045;-63
2021/11/12 10:32:42;;;;;;;31.25;19.77;;;;;;;6.32;72.70;100018.94;4996689;28;20038;-63
2021/11/12 10:35:29;;;;;;;33.08;20.70;;;;;;;6.36;73.16;100007.94;4997277;28;20030;-63
2021/11/12 10:38:06;;;;;;;28.80;20.27;;;;;;;6.39;72.52;100007.13;4996121;28;20034;-63
2021/11/12 10:40:32;;;;;;;29.30;19.70;;;;;;;6.42;72.75;99988.38;4996836;28;20044;-63
2021/11/12 10:42:58;;;;;;;27.88;19.60;;;;;;;6.46;72.74;99992.78;4997158;28;20038;-63
2021/11/12 10:45:34;;;;;;;28.70;19.52;;;;;;;6.48;72.34;99992.00;4997015;28;20030;-64
2021/11/12 10:48:07;;;;;;;29.77;18.85;;;;;;;6.48;72.66;99997.16;4996531;28;20045;-63
2021/11/12 10:50:40;;;;;;;30.30;19.50;;;;;;;6.53;72.75;99989.56;4996462;28;20504;-63
2021/11/12 10:53:16;;;;;;;32.50;19.60;;;;;;;6.54;72.71;99984.47;4996456;28;20449;-63
2021/11/12 10:55:59;;;;;;;28.58;18.30;;;;;;;6.57;72.72;99985.38;5012731;28;20037;-65
2021/11/12 10:58:28;;;;;;;27.63;19.80;;;;;;;6.61;72.47;99975.25;4996410;28;20042;-64
2021/11/12 11:00:54;;;;;;;30.55;21.30;;;;;;;6.63;72.73;99964.97;4996353;28;20375;-64
2021/11/12 11:03:24;;;;;;;36.47;20.75;;;;;;;6.65;72.73;99965.91;4995881;28;20050;-64
2021/11/12 11:06:03;;;;;;;37.08;19.42;;;;;;;6.69;72.73;99966.03;4997245;28;20030;-64
2021/11/12 11:08:34;;;;;;;26.38;18.83;;;;;;;6.74;72.44;99963.59;4996656;28;20130;-64
2021/11/12 11:11:10;;;;;;;28.27;18.05;;;;;;;6.77;72.48;99952.53;4996831;28;20049;-63
2021/11/12 11:13:47;;;;;;;29.90;19.65;;;;;;;6.79;72.38;99953.44;4996505;28;20041;-63
2021/11/12 11:16:20;;;;;;;33.95;19.15;;;;;;;6.82;72.67;99956.09;4996558;28;20417;-64
2021/11/12 11:18:59;;;;;;;30.05;18.65;;;;;;;6.85;72.83;99940.75;4996720;28;20124;-64
2021/11/12 11:21:33;;;;;;;28.05;17.92;;;;;;;6.85;72.36;99949.34;5012784;28;20077;-64
2021/11/12 11:24:07;;;;;;;28.10;18.98;;;;;;;6.89;72.45;99954.56;4996160;28;20112;-64
2021/11/12 11:26:45;;;;;;;27.10;17.05;;;;;;;6.93;72.36;99938.38;4996148;28;20053;-63
2021/11/12 11:29:24;;;;;;;31.13;19.13;;;;;;;6.94;72.68;99935.84;4996084;28;20046;-63
2021/11/12 11:31:58;;;;;;;29.80;17.02;;;;;;;6.97;72.31;99928.22;4996399;28;20049;-63
2021/11/12 11:34:30;;;;;;;28.80;18.60;;;;;;;7.01;72.29;99929.16;4996390;28;20041;-63
2021/11/12 11:37:06;;;;;;;27.75;18.88;;;;;;;7.01;72.61;99935.22;4996102;28;20144;-63
2021/11/12 11:39:33;;;;;;;26.35;16.45;;;;;;;7.03;72.25;99935.25;4996410;28;20425;-63
2021/11/12 11:42:06;;;;;;;28.73;17.23;;;;;;;7.05;72.17;99940.44;4996278;28;20500;-63
2021/11/12 11:44:44;;;;;;;30.92;17.73;;;;;;;7.07;72.65;99943.94;4999882;28;20041;-64
2021/11/12 11:47:23;;;;;;;31.52;17.45;;;;;;;7.09;72.55;99945.72;4999847;28;20048;-63
2021/11/12 11:49:53;;;;;;;26.95;16.98;;;;;;;7.12;72.33;99956.13;5016294;28;20120;-63
2021/11/12 11:52:30;;;;;;;26.40;16.05;;;;;;;7.15;72.57;99952.75;5016564;28;20037;-63
2021/11/12 11:55:05;;;;;;;24.08;16.48;;;;;;;7.14;72.35;99949.31;5000090;28;20038;-64
2021/11/12 11:57:37;;;;;;;33.80;16.27;;;;;;;7.16;72.21;99951.94;5000531;28;20127;-65
2021/11/12 13:21:07;;;;;;;17.13;11.57;;;;;;;7.55;72.48;99852.41;5014200;28;20048;-64
2021/11/12 13:23:52;;;;;;;16.40;12.23;;;;;;;7.57;72.11;99849.03;4997998;28;20137;-63
2021/11/12 13:26:19;;;;;;;16.80;11.63;;;;;;;7.59;72.46;99842.19;4998834;28;20033;-63
2021/11/12 13:28:46;;;;;;;17.98;12.77;;;;;;;7.61;72.33;99852.56;4998058;28;20042;-63
2021/11/12 13:31:16;;;;;;;20.55;11.10;;;;;;;7.60;72.58;99851.69;4997990;28;20049;-63
2021/11/12 13:33:51;;;;;;;19.45;11.57;;;;;;;7.64;72.49;99841.44;4998155;28;20141;-63
2021/11/12 13:36:35;;;;;;;19.17;11.95;;;;;;;7.62;72.31;99837.13;4997910;28;20516;-63
2021/11/12 13:39:08;;;;;;;21.50;11.77;;;;;;;7.64;72.44;99841.44;4997767;28;20045;-63
2021/11/12 13:41:40;;;;;;;17.73;11.90;;;;;;;7.65;72.38;99827.72;4998313;28;20111;-63
2021/11/12 13:44:19;;;;;;;18.13;11.82;;;;;;;7.64;72.44;99816.50;4998405;28;20041;-64
2021/11/12 13:46:56;;;;;;;18.40;12.25;;;;;;;7.67;72.75;99808.00;4998972;28;20103;-63
2021/11/12 13:49:32;;;;;;;16.85;11.02;;;;;;;7.67;72.68;99813.16;4998347;28;20057;-63
2021/11/12 13:52:17;;;;;;;18.88;11.32;;;;;;;7.68;72.86;99807.16;4998043;28;20042;-63
2021/11/12 13:54:46;;;;;;;18.13;11.30;;;;;;;7.68;72.31;99802.84;4997654;28;20084;-64
2021/11/12 13:57:26;;;;;;;18.65;12.50;;;;;;;7.67;72.62;99806.28;4997948;28;20129;-63
2021/11/12 13:59:53;;;;;;;22.83;12.63;;;;;;;7.69;72.21;99799.44;4998182;28;20080;-63
2021/11/12 14:02:19;;;;;;;16.30;11.18;;;;;;;7.70;72.43;99802.91;4997612;28;20034;-64
2021/11/12 14:04:45;;;;;;;20.27;11.57;;;;;;;7.70;72.28;99790.88;4997319;28;20085;-63
2021/11/12 14:07:20;;;;;;;16.70;12.20;;;;;;;7.72;72.19;99790.91;4996992;28;20041;-63
2021/11/12 14:10:06;;;;;;;15.75;10.73;;;;;;;7.71;72.23;99784.00;4997561;28;20042;-64
2021/11/12 14:13:26;;;;;;;18.20;11.40;;;;;;;7.72;72.46;99778.00;4996469;28;20046;-64
2021/11/12 14:16:01;;;;;;;18.00;10.60;;;;;;;7.71;72.51;99769.41;5013680;28;20124;-63
2021/11/12 14:24:13;;;;;;;17.25;11.32;;;;;;;7.71;72.23;99759.09;5013214;28;20519;-64
2021/11/12 14:32:55;;;;;;;19.58;12.00;;;;;;;7.71;73.11;99741.03;5012806;28;20040;-63
2021/11/12 14:38:36;;;;;;;19.42;10.88;;;;;;;7.73;72.41;99743.63;5013366;28;20038;-64
2021/11/12 14:54:56;;;;;;;16.15;11.02;;;;;;;7.75;72.60;99729.94;5012021;28;20038;-59
2021/11/12 14:57:30;;;;;;;13.32;9.90;;;;;;;7.76;72.36;99734.28;4991438;28;20053;-59
2021/11/12 15:00:08;;;;;;;14.07;9.30;;;;;;;7.77;72.66;99732.56;5012562;28;20085;-59
2021/11/12 15:02:37;;;;;;;15.50;9.48;;;;;;;7.77;72.59;99735.13;5014633;28;20046;-58
2021/11/12 15:05:06;;;;;;;13.73;9.20;;;;;;;7.76;72.72;99744.59;5014400;28;20037;-59
2021/11/12 15:07:43;;;;;;;13.73;9.68;;;;;;;7.76;72.71;99735.97;5014052;28;20029;-59
2021/11/12 15:10:23;;;;;;;18.00;9.63;;;;;;;7.75;72.31;99736.81;5013822;28;20072;-58
2021/11/12 15:12:51;;;;;;;11.70;8.48;;;;;;;7.74;72.64;99732.47;5014032;28;20095;-59
2021/11/12 15:15:17;;;;;;;12.82;8.63;;;;;;;7.74;72.72;99735.06;5013859;28;20033;-59
2021/11/12 15:17:43;;;;;;;17.77;8.57;;;;;;;7.74;72.33;99728.19;5012113;28;20497;-59
2021/11/12 15:20:11;;;;;;;15.00;9.40;;;;;;;7.74;72.62;99723.03;5012798;28;20080;-58
2021/11/12 15:25:58;;;;;;;14.07;8.50;;;;;;;7.75;72.46;99708.41;5012433;28;20137;-58
2021/11/12 15:30:41;;;;;;;11.85;7.45;;;;;;;7.76;72.48;99707.59;5012732;28;20061;-59
2021/11/12 15:33:14;;;;;;;12.35;7.97;;;;;;;7.76;72.09;99694.69;5013583;28;20034;-59
2021/11/12 15:35:40;;;;;;;14.70;9.15;;;;;;;7.75;72.34;99696.41;5014066;28;20433;-59
2021/11/12 15:38:17;;;;;;;11.82;7.20;;;;;;;7.75;71.96;99700.69;5012403;28;20396;-58
2021/11/12 15:40:49;;;;;;;10.07;6.30;;;;;;;7.75;72.25;99705.84;5012111;28;20057;-58
2021/11/12 15:48:14;;;;;;;9.35;6.47;;;;;;;7.75;72.27;99703.25;5012424;28;20077;-58
2021/11/12 15:53:18;;;;;;;12.63;7.45;;;;;;;7.74;72.28;99706.69;5012196;28;20036;-58
2021/11/12 16:12:26;;;;;;;8.32;5.95;;;;;;;7.67;71.99;99685.03;5013488;28;20172;-58
2021/11/12 16:23:03;;;;;;;9.75;5.95;;;;;;;7.67;72.19;99664.41;5013494;28;20509;-58
2021/11/12 16:25:32;;;;;;;17.27;8.00;;;;;;;7.67;72.25;99648.06;5013111;28;20077;-58
2021/11/12 16:28:04;;;;;;;15.60;7.35;;;;;;;7.67;71.98;99638.59;5011899;28;20034;-58
2021/11/12 16:30:34;;;;;;;11.98;7.45;;;;;;;7.67;72.23;99627.44;5016464;28;20081;-58
2021/11/12 16:33:03;;;;;;;11.00;6.68;;;;;;;7.68;71.79;99616.28;5016943;28;20073;-59
2021/11/12 16:35:35;;;;;;;8.10;7.07;;;;;;;7.69;72.01;99628.34;5015717;28;20069;-58
2021/11/12 16:38:09;;;;;;;10.98;7.30;;;;;;;7.67;71.90;99619.69;5016579;28;20034;-58
2021/11/12 16:40:47;;;;;;;11.45;7.35;;;;;;;7.67;72.14;99611.97;4999515;28;20120;-58
2021/11/12 16:53:24;;;;;;;10.45;7.63;;;;;;;7.66;71.97;99607.63;5016774;28;20038;-58
2021/11/12 16:58:28;;;;;;;11.43;7.07;;;;;;;7.66;71.74;99600.75;5015974;28;20507;-58
2021/11/12 17:11:50;;;;;;;;;;;;;;;7.64;71.74;99591.25;5017107;28;20512;-58
2021/11/12 17:19:41;;;;;;;10.13;6.20;;;;;;;7.62;71.65;99601.56;5014951;28;20048;-58
2021/11/12 17:47:00;;;;;;;9.50;5.85;;;;;;;7.59;71.10;99647.91;5015535;28;20481;-58
2021/11/12 21:48:37;;;;;;;;;;;;;;;7.43;73.88;99587.38;5054606;28;19923;-59
2021/11/12 21:51:04;;;;;;;;;;;;;;;7.43;73.68;99588.25;5037539;28;19917;-57
2021/11/12 21:53:31;;;;;;;;;;;;;;;7.44;74.23;99582.28;5054276;28;19924;-59
2021/11/12 21:55:56;;;;;;;;;;;;;;;7.44;73.92;99582.28;5055464;28;19917;-59
2021/11/12 21:58:25;;;;;;;;;;;;;;;7.45;73.92;99575.38;5054270;28;19946;-59
2021/11/12 22:00:51;;;;;;;;;;;;;;;7.45;73.81;99575.38;5054142;28;19916;-59
2021/11/12 22:03:16;;;;;;;;;;;;;;;7.46;73.92;99571.97;5055282;28;19924;-59
2021/11/12 22:05:43;;;;;;;;;;;;;;;7.46;73.99;99566.81;5055060;28;19995;-59
2021/11/12 22:08:08;;;;;;;;;;;;;;;7.45;73.93;99571.13;5054036;28;19955;-59
2021/11/12 22:10:33;;;;;;;;;;;;;;;7.45;73.99;99557.34;5055292;28;19960;-59
2021/11/12 22:12:59;;;;;;;;;;;;;;;7.46;73.75;99553.94;5053819;28;19944;-59
2021/11/12 22:15:24;;;;;;;;;;;;;;;7.45;74.08;99531.56;5053564;28;19921;-58
2021/11/12 22:17:50;;;;;;;;;;;;;;;7.47;74.02;99537.63;5055073;28;19917;-59
2021/11/12 22:20:17;;;;;;;;;;;;;;;7.45;74.02;99523.81;5055031;28;20346;-60
2021/11/12 22:22:42;;;;;;;;;;;;;;;7.46;74.09;99522.97;5055284;28;20433;-59
2021/11/12 22:25:09;;;;;;;;;;;;;;;7.47;73.98;99527.31;5053991;28;19917;-59
2021/11/12 22:27:35;;;;;;;;;;;;;;;7.44;74.31;99528.13;5036760;28;20038;-59
2021/11/12 22:30:03;;;;;;;;;;;;;;;7.45;74.10;99523.81;5053943;28;19931;-59
2021/11/12 22:32:28;;;;;;;;;;;;;;;7.44;74.25;99524.66;5037166;28;19917;-59
2021/11/12 22:34:55;;;;;;;;;;;;;;;7.45;74.10;99521.25;5054735;28;19927;-59
2021/11/12 22:37:23;;;;;;;;;;;;;;;7.44;74.43;99517.81;5054745;28;19967;-59
2021/11/12 22:39:48;;;;;;;;;;;;;;;7.44;74.17;99507.50;5036876;28;20010;-59
2021/11/12 22:42:16;;;;;;;;;;;;;;;7.44;74.17;99512.66;5054856;28;20062;-59
2021/11/12 22:44:42;;;;;;;;;;;;;;;7.44;74.07;99533.28;5054159;28;19924;-59
2021/11/12 22:47:10;;;;;;;;;;;;;;;7.45;74.43;99541.88;5053577;28;19924;-59
2021/11/12 22:49:35;;;;;;;;;;;;;;;7.45;74.12;99541.88;5053967;28;19917;-59